This is the latest recevied weather packets stored in our database for station/object KF0JHJ. If no packets are shown the sender has not sent any weather packets the latest 10 day(s).
| Time | Temp. | Humidity | Pressure | Rain* | Wind** | Luminosity | Snow |
|---|---|---|---|---|---|---|---|
| 1777785539 | 15° C | 51% | 1006.5 hPa | - | - | 0 W/m² | - |
| 1777785235 | 15.56° C | 49% | 1006.2 hPa | - | - | 0 W/m² | - |
| 1777784932 | 15° C | 50% | 1006.2 hPa | - | - | 0 W/m² | - |
| 1777784628 | 15° C | 52% | 1005.9 hPa | - | - | 0 W/m² | - |
| 1777784326 | 15.56° C | 51% | 1006.1 hPa | - | - | 0 W/m² | - |
| 1777784023 | 15.56° C | 50% | 1005.9 hPa | - | - | 0 W/m² | - |
| 1777783720 | 15.56° C | 50% | 1005.9 hPa | - | - | 0 W/m² | - |
| 1777783417 | 16.11° C | 49% | 1005.9 hPa | - | - | 0 W/m² | - |
| 1777783113 | 15.56° C | 49% | 1005.6 hPa | - | - | 0 W/m² | - |
| 1777782811 | 15.56° C | 52% | 1005.8 hPa | - | - | 0 W/m² | - |
| 1777782507 | 15.56° C | 50% | 1006.1 hPa | - | - | 0 W/m² | - |
| 1777782204 | 16.11° C | 48% | 1006.1 hPa | - | - | 0 W/m² | - |
| 1777781900 | 16.67° C | 43% | 1006.7 hPa | - | - | 0 W/m² | - |
| 1777781597 | 16.11° C | 45% | 1007 hPa | - | - | 0 W/m² | - |
| 1777781295 | 15.56° C | 44% | 1006.6 hPa | - | - | 0 W/m² | - |
| 1777780992 | 15.56° C | 45% | 1006.8 hPa | - | - | 0 W/m² | - |
| 1777780689 | 15° C | 47% | 1006.7 hPa | - | - | 0 W/m² | - |
| 1777780386 | 15° C | 47% | 1006.8 hPa | - | - | 0 W/m² | - |
| 1777780083 | 15° C | 48% | 1006.5 hPa | - | - | 0 W/m² | - |
| 1777779780 | 14.44° C | 48% | 1006.7 hPa | - | - | 0 W/m² | - |
| 1777779478 | 13.89° C | 49% | 1006.6 hPa | - | - | 0 W/m² | - |
| 1777779175 | 14.44° C | 49% | 1006.7 hPa | - | - | 0 W/m² | - |
| 1777778873 | 15° C | 47% | 1006.7 hPa | - | - | 0 W/m² | - |
| 1777778572 | 15° C | 46% | 1006.8 hPa | - | - | 0 W/m² | - |
| 1777778268 | 15.56° C | 45% | 1006.9 hPa | - | - | 0 W/m² | - |
* Rain since midnight (hover to see other rain measurements)
** Current wind speed in m/s (hover to see current wind gust speed)